Time;durP1;ratioP1;P1;durP2;ratioP2;P2;SDS_P1;SDS_P2;PMS_P1;PMS_P2;Temp;Humidity;BMP_temperature;BMP_pressure;BME280_temperature;BME280_humidity;BME280_pressure;Samples;Min_cycle;Max_cycle;Signal;HPM_P1;HPM_P2
2023/09/01 00:01:12;;;;;;;;;;;24.10;49.20;;;;;;5029838;28;21363;-70
2023/09/01 00:03:38;;;;;;;;;;;24.00;50.70;;;;;;5027322;28;19924;-69
2023/09/01 00:06:11;;;;;;;;;;;24.10;48.50;;;;;;5026379;28;20325;-70
2023/09/01 00:08:38;;;;;;;;;;;24.10;48.20;;;;;;5028916;28;20271;-69
2023/09/01 00:11:04;;;;;;;;;;;23.90;49.40;;;;;;5025744;28;19917;-70
2023/09/01 00:13:31;;;;;;;;;;;24.00;48.40;;;;;;5027462;28;20462;-70
2023/09/01 00:15:57;;;;;;;;;;;24.10;48.60;;;;;;5024894;28;19913;-66
2023/09/01 00:18:24;;;;;;;;;;;23.80;48.30;;;;;;5025125;28;19967;-67
2023/09/01 00:20:51;;;;;;;;;;;23.80;49.20;;;;;;5028140;28;19968;-67
2023/09/01 00:23:17;;;;;;;;;;;23.50;49.50;;;;;;5026408;28;20013;-68
2023/09/01 00:25:44;;;;;;;;;;;23.10;50.10;;;;;;5022325;28;20003;-66
2023/09/01 00:28:11;;;;;;;;;;;23.80;49.60;;;;;;5023080;28;19967;-67
2023/09/01 00:30:50;;;;;;;;;;;24.10;49.40;;;;;;5021752;28;19921;-67
2023/09/01 00:33:16;;;;;;;;;;;24.30;49.20;;;;;;5022694;28;19917;-66
2023/09/01 00:35:43;;;;;;;;;;;24.20;47.60;;;;;;5015092;28;19995;-66
2023/09/01 00:38:10;;;;;;;;;;;24.30;49.00;;;;;;5023854;28;19913;-66
2023/09/01 00:40:37;;;;;;;;;;;24.30;48.30;;;;;;5030298;28;20007;-67
2023/09/01 00:43:03;;;;;;;;;;;24.20;45.80;;;;;;5022159;28;19945;-65
2023/09/01 00:45:30;;;;;;;;;;;24.20;47.00;;;;;;5024416;28;20023;-67
2023/09/01 00:47:57;;;;;;;;;;;23.60;47.60;;;;;;5024626;28;19925;-66
2023/09/01 00:50:23;;;;;;;;;;;23.30;48.90;;;;;;5025026;28;20115;-67
2023/09/01 00:52:50;;;;;;;;;;;23.90;47.60;;;;;;5024660;28;20463;-66
2023/09/01 00:55:17;;;;;;;;;;;24.20;46.60;;;;;;5027133;28;19964;-67
2023/09/01 00:57:43;;;;;;;;;;;24.70;46.00;;;;;;5026109;28;19921;-66
2023/09/01 01:00:11;;;;;;;;;;;24.90;44.70;;;;;;5025319;28;20445;-67
2023/09/01 01:02:38;;;;;;;;;;;25.30;44.80;;;;;;5024020;28;19960;-67
2023/09/01 01:05:14;;;;;;;;;;;25.80;44.00;;;;;;5026705;28;19960;-67
2023/09/01 01:08:00;;;;;;;;;;;25.50;44.10;;;;;;5029274;28;19921;-66
2023/09/01 01:10:31;;;;;;;;;;;25.70;44.50;;;;;;5019620;28;19932;-67
2023/09/01 01:13:01;;;;;;;;;;;25.80;44.50;;;;;;5021367;28;20378;-66
2023/09/01 01:15:32;;;;;;;;;;;25.90;44.60;;;;;;5023610;28;19921;-65
2023/09/01 01:18:00;;;;;;;;;;;26.20;44.10;;;;;;5019466;28;20386;-66
2023/09/01 01:20:26;;;;;;;;;;;25.70;43.40;;;;;;5019736;28;20329;-66
2023/09/01 01:23:05;;;;;;;;;;;24.50;44.20;;;;;;5023772;28;19959;-66
2023/09/01 01:25:32;;;;;;;;;;;24.40;44.70;;;;;;5022473;28;20027;-68
2023/09/01 01:28:05;;;;;;;;;;;23.90;46.60;;;;;;5025390;28;19933;-67
2023/09/01 01:30:32;;;;;;;;;;;23.00;47.50;;;;;;5025846;28;19925;-67
2023/09/01 01:32:59;;;;;;;;;;;23.20;48.30;;;;;;5024735;28;19917;-66
2023/09/01 01:35:34;;;;;;;;;;;24.10;46.10;;;;;;5024968;28;19921;-67
2023/09/01 01:38:17;;;;;;;;;;;23.70;46.30;;;;;;5030562;28;20303;-67
2023/09/01 01:40:46;;;;;;;;;;;22.90;47.00;;;;;;5028502;28;19913;-66
2023/09/01 01:43:13;;;;;;;;;;;21.80;48.20;;;;;;5026073;28;19928;-66
2023/09/01 01:45:42;;;;;;;;;;;21.50;48.70;;;;;;5025734;28;20314;-66
2023/09/01 01:48:09;;;;;;;;;;;21.90;46.80;;;;;;5030927;28;19929;-66
2023/09/01 01:50:36;;;;;;;;;;;23.10;46.20;;;;;;5036195;28;19913;-66
2023/09/01 01:53:05;;;;;;;;;;;24.10;43.90;;;;;;5031939;28;19913;-66
2023/09/01 01:55:32;;;;;;;;;;;24.70;42.10;;;;;;5030296;28;19940;-67
2023/09/01 01:57:59;;;;;;;;;;;25.20;40.90;;;;;;5030529;28;19917;-67
2023/09/01 02:00:29;;;;;;;;;;;25.50;40.80;;;;;;5033385;28;19920;-68
2023/09/01 02:02:55;;;;;;;;;;;25.40;40.20;;;;;;5033354;28;19920;-67
2023/09/01 02:05:22;;;;;;;;;;;24.70;41.30;;;;;;5032726;28;19917;-68
2023/09/01 02:07:49;;;;;;;;;;;24.40;41.70;;;;;;5029181;28;19925;-68
2023/09/01 02:10:17;;;;;;;;;;;24.60;42.50;;;;;;5033372;28;20286;-67
2023/09/01 02:12:44;;;;;;;;;;;24.90;39.70;;;;;;5028418;28;19998;-67
2023/09/01 02:15:11;;;;;;;;;;;25.00;40.20;;;;;;5026868;28;20619;-68
2023/09/01 02:17:38;;;;;;;;;;;25.30;39.40;;;;;;5030108;28;19917;-67
2023/09/01 02:20:16;;;;;;;;;;;25.50;40.30;;;;;;5030836;28;19948;-66
2023/09/01 02:22:44;;;;;;;;;;;26.10;38.20;;;;;;5030762;28;19913;-66
2023/09/01 02:25:12;;;;;;;;;;;25.40;39.40;;;;;;5025237;28;20018;-66
2023/09/01 02:27:41;;;;;;;;;;;25.10;40.80;;;;;;5029005;28;19924;-66
2023/09/01 02:30:09;;;;;;;;;;;24.80;39.80;;;;;;5030989;28;19913;-66
2023/09/01 02:32:37;;;;;;;;;;;24.50;39.80;;;;;;5029448;28;19913;-66
2023/09/01 02:35:06;;;;;;;;;;;24.80;40.00;;;;;;5027876;28;19940;-67
2023/09/01 02:37:33;;;;;;;;;;;25.30;37.70;;;;;;5030688;28;19927;-66
2023/09/01 02:40:00;;;;;;;;;;;25.30;38.50;;;;;;5025203;28;19917;-67
2023/09/01 02:42:27;;;;;;;;;;;25.20;38.20;;;;;;5033726;28;20326;-67
2023/09/01 02:44:57;;;;;;;;;;;25.20;36.80;;;;;;5026834;28;20030;-67
2023/09/01 02:47:24;;;;;;;;;;;25.20;37.10;;;;;;5029991;28;20293;-66
2023/09/01 02:49:51;;;;;;;;;;;25.50;37.70;;;;;;5030797;28;20290;-66
2023/09/01 02:52:17;;;;;;;;;;;25.90;36.50;;;;;;5030622;28;19913;-66
2023/09/01 02:54:44;;;;;;;;;;;26.10;36.10;;;;;;5031162;28;20432;-67
2023/09/01 02:57:11;;;;;;;;;;;25.20;35.70;;;;;;5030076;28;19963;-67
2023/09/01 02:59:38;;;;;;;;;;;23.90;37.40;;;;;;5034785;28;19912;-67
2023/09/01 03:02:05;;;;;;;;;;;24.10;37.80;;;;;;5034889;28;19917;-66
2023/09/01 03:04:31;;;;;;;;;;;24.40;37.50;;;;;;5033867;28;20366;-66
2023/09/01 03:06:58;;;;;;;;;;;24.90;37.10;;;;;;5025807;28;19920;-67
2023/09/01 03:09:24;;;;;;;;;;;25.20;37.20;;;;;;5025563;28;20286;-67
2023/09/01 03:11:51;;;;;;;;;;;25.30;36.60;;;;;;5028236;28;19921;-67
2023/09/01 03:14:18;;;;;;;;;;;25.70;36.50;;;;;;5025028;28;19922;-66
2023/09/01 03:16:44;;;;;;;;;;;25.90;36.60;;;;;;5027301;28;19921;-66
2023/09/01 03:19:11;;;;;;;;;;;25.40;36.20;;;;;;5026149;28;20370;-67
2023/09/01 03:21:38;;;;;;;;;;;25.10;37.40;;;;;;5028790;28;19921;-68
2023/09/01 03:24:04;;;;;;;;;;;25.30;37.00;;;;;;5032181;28;19917;-67
2023/09/01 03:26:31;;;;;;;;;;;25.40;39.40;;;;;;5024965;28;19921;-69
2023/09/01 03:28:58;;;;;;;;;;;25.60;37.50;;;;;;5026080;28;20382;-68
2023/09/01 03:31:25;;;;;;;;;;;25.70;37.10;;;;;;5030372;28;19913;-67
2023/09/01 03:33:51;;;;;;;;;;;25.60;38.70;;;;;;5027495;28;19913;-68
2023/09/01 03:36:18;;;;;;;;;;;25.50;39.00;;;;;;5028424;28;19920;-67
2023/09/01 03:38:45;;;;;;;;;;;25.10;37.10;;;;;;5029115;28;19913;-68
2023/09/01 03:41:11;;;;;;;;;;;23.90;39.00;;;;;;5029468;28;19913;-68
2023/09/01 03:43:38;;;;;;;;;;;23.10;39.20;;;;;;5031431;28;19921;-68
2023/09/01 03:46:05;;;;;;;;;;;22.90;39.90;;;;;;5023971;28;19920;-69
2023/09/01 03:48:32;;;;;;;;;;;22.60;40.10;;;;;;5026333;28;20086;-67
2023/09/01 03:51:12;;;;;;;;;;;22.50;39.80;;;;;;5027931;28;20291;-68
2023/09/01 03:53:38;;;;;;;;;;;23.00;40.20;;;;;;5027919;28;20374;-68
2023/09/01 03:56:16;;;;;;;;;;;23.60;40.70;;;;;;5030793;28;20424;-68
2023/09/01 03:58:45;;;;;;;;;;;23.20;42.20;;;;;;5031034;28;19958;-68
2023/09/01 04:01:12;;;;;;;;;;;22.50;43.00;;;;;;5027231;28;21801;-67
2023/09/01 04:03:39;;;;;;;;;;;21.70;45.00;;;;;;5027336;28;19916;-67
2023/09/01 04:06:06;;;;;;;;;;;21.10;46.40;;;;;;5030641;28;20031;-66
2023/09/01 04:08:36;;;;;;;;;;;20.90;46.70;;;;;;5031757;28;20052;-66
2023/09/01 04:11:03;;;;;;;;;;;20.90;47.30;;;;;;5033667;28;20298;-67
2023/09/01 04:13:30;;;;;;;;;;;21.30;46.70;;;;;;5029482;28;19921;-67
2023/09/01 04:15:57;;;;;;;;;;;21.40;46.30;;;;;;5029554;28;19956;-68
2023/09/01 04:18:24;;;;;;;;;;;21.00;46.90;;;;;;5031101;28;19912;-71
2023/09/01 04:20:51;;;;;;;;;;;20.80;47.10;;;;;;5016742;28;20374;-67
2023/09/01 04:23:18;;;;;;;;;;;20.70;47.40;;;;;;5029236;28;19944;-66
2023/09/01 04:25:49;;;;;;;;;;;20.70;47.20;;;;;;5030330;28;19924;-69
2023/09/01 04:28:16;;;;;;;;;;;20.90;47.60;;;;;;5026638;28;19964;-67
2023/09/01 04:30:43;;;;;;;;;;;21.30;46.60;;;;;;5027334;28;20059;-67
2023/09/01 04:33:10;;;;;;;;;;;20.90;47.00;;;;;;5027062;28;19920;-67
2023/09/01 04:35:36;;;;;;;;;;;20.40;47.80;;;;;;5026819;28;19913;-67
2023/09/01 04:38:03;;;;;;;;;;;20.40;47.90;;;;;;5029205;28;19967;-66
2023/09/01 04:40:30;;;;;;;;;;;20.40;47.60;;;;;;5030776;28;21381;-66
2023/09/01 04:42:57;;;;;;;;;;;20.30;47.80;;;;;;5028741;28;20274;-66
2023/09/01 04:45:24;;;;;;;;;;;20.10;48.20;;;;;;5029394;28;19921;-69
2023/09/01 04:47:51;;;;;;;;;;;19.80;49.00;;;;;;5032849;28;19924;-69
2023/09/01 04:50:18;;;;;;;;;;;19.60;50.00;;;;;;5035038;28;19913;-68
2023/09/01 04:52:44;;;;;;;;;;;20.00;49.40;;;;;;5032383;28;19909;-67
2023/09/01 04:55:11;;;;;;;;;;;20.30;48.70;;;;;;5024831;28;19916;-68
2023/09/01 04:57:38;;;;;;;;;;;20.10;48.50;;;;;;5033517;28;19921;-69
2023/09/01 05:00:15;;;;;;;;;;;19.70;50.20;;;;;;5031652;28;19913;-70
2023/09/01 05:02:43;;;;;;;;;;;19.30;50.60;;;;;;5027429;28;19928;-70
2023/09/01 05:05:10;;;;;;;;;;;19.50;50.60;;;;;;5028678;28;19963;-69
2023/09/01 05:07:38;;;;;;;;;;;19.90;49.50;;;;;;5032700;28;19932;-71
2023/09/01 05:10:05;;;;;;;;;;;19.70;49.00;;;;;;5035484;28;19945;-69
2023/09/01 05:12:32;;;;;;;;;;;19.40;49.60;;;;;;5036588;28;20458;-69
2023/09/01 05:14:59;;;;;;;;;;;19.30;50.00;;;;;;5034467;28;19967;-70
2023/09/01 05:17:26;;;;;;;;;;;19.10;50.10;;;;;;5031660;28;20012;-69
2023/09/01 05:19:54;;;;;;;;;;;18.90;50.60;;;;;;5037588;28;19924;-69
2023/09/01 05:22:20;;;;;;;;;;;18.90;51.30;;;;;;5049171;28;19913;-70
2023/09/01 05:24:50;;;;;;;;;;;18.70;51.00;;;;;;5033063;28;19999;-69
2023/09/01 05:27:20;;;;;;;;;;;18.90;51.60;;;;;;5035437;28;19918;-70
2023/09/01 05:29:47;;;;;;;;;;;19.10;51.00;;;;;;5035462;28;19913;-71
2023/09/01 05:32:14;;;;;;;;;;;19.20;50.80;;;;;;5034785;28;19917;-71
2023/09/01 05:34:41;;;;;;;;;;;19.20;51.60;;;;;;5035902;28;19932;-71
2023/09/01 05:37:13;;;;;;;;;;;19.20;51.90;;;;;;5036127;28;20366;-69
2023/09/01 05:39:40;;;;;;;;;;;19.50;51.60;;;;;;5036846;28;19928;-70
2023/09/01 05:42:07;;;;;;;;;;;19.50;51.50;;;;;;5033686;28;20131;-69
2023/09/01 05:44:35;;;;;;;;;;;19.60;51.50;;;;;;5032915;28;19929;-70
2023/09/01 05:47:05;;;;;;;;;;;19.50;52.00;;;;;;5030606;28;20000;-70
2023/09/01 05:49:32;;;;;;;;;;;19.60;52.70;;;;;;5035463;28;20421;-70
2023/09/01 05:51:59;;;;;;;;;;;19.40;50.90;;;;;;5038221;28;19913;-70
2023/09/01 05:54:26;;;;;;;;;;;19.20;50.60;;;;;;5035309;28;19921;-70
2023/09/01 05:56:53;;;;;;;;;;;19.20;51.00;;;;;;5036212;28;19913;-67
2023/09/01 05:59:20;;;;;;;;;;;19.10;50.80;;;;;;5034823;28;19918;-70
2023/09/01 06:01:47;;;;;;;;;;;19.00;51.00;;;;;;5037278;28;20371;-68
2023/09/01 06:04:14;;;;;;;;;;;19.00;51.00;;;;;;5029851;28;19914;-69
2023/09/01 06:06:41;;;;;;;;;;;18.80;51.20;;;;;;5030796;28;19921;-69
2023/09/01 06:09:08;;;;;;;;;;;18.80;50.90;;;;;;5032520;28;19925;-69
2023/09/01 06:11:35;;;;;;;;;;;18.80;50.70;;;;;;5034316;28;19952;-68
2023/09/01 06:14:03;;;;;;;;;;;18.80;50.70;;;;;;5034477;28;19924;-69
2023/09/01 06:16:29;;;;;;;;;;;18.80;51.40;;;;;;5038453;28;20366;-69
2023/09/01 06:18:58;;;;;;;;;;;18.90;51.30;;;;;;5031995;28;20386;-69
2023/09/01 06:21:24;;;;;;;;;;;18.80;52.20;;;;;;5033539;28;19915;-69
2023/09/01 06:23:51;;;;;;;;;;;18.70;52.30;;;;;;5031627;28;19913;-68
2023/09/01 06:26:18;;;;;;;;;;;18.60;52.50;;;;;;5033521;28;19920;-68
2023/09/01 06:28:46;;;;;;;;;;;18.50;53.50;;;;;;5029706;28;19928;-68
2023/09/01 06:31:13;;;;;;;;;;;18.50;53.80;;;;;;5034902;28;19925;-68
2023/09/01 06:33:43;;;;;;;;;;;18.30;54.00;;;;;;5033182;28;20022;-68
2023/09/01 06:36:12;;;;;;;;;;;18.00;54.00;;;;;;5033752;28;19913;-68
2023/09/01 06:38:42;;;;;;;;;;;17.80;54.40;;;;;;5036086;28;20436;-69
2023/09/01 06:41:09;;;;;;;;;;;17.80;54.80;;;;;;5031905;28;19917;-69
2023/09/01 06:43:36;;;;;;;;;;;17.70;54.40;;;;;;5032452;28;20281;-69
2023/09/01 06:46:03;;;;;;;;;;;17.70;55.00;;;;;;5033514;28;19955;-69
2023/09/01 06:48:31;;;;;;;;;;;17.70;54.90;;;;;;5037502;28;19978;-69
2023/09/01 06:50:59;;;;;;;;;;;17.60;54.60;;;;;;5034543;28;19920;-69
2023/09/01 06:53:26;;;;;;;;;;;17.50;54.90;;;;;;5031996;28;19936;-69
2023/09/01 06:55:53;;;;;;;;;;;17.40;55.90;;;;;;5047713;28;20023;-67
2023/09/01 06:58:20;;;;;;;;;;;17.40;55.70;;;;;;5032323;28;20255;-67
2023/09/01 07:00:46;;;;;;;;;;;17.20;55.80;;;;;;5034386;28;20361;-69
2023/09/01 07:03:13;;;;;;;;;;;17.10;56.30;;;;;;5029036;28;19971;-69
2023/09/01 07:05:40;;;;;;;;;;;16.90;56.50;;;;;;5028247;28;20325;-68
2023/09/01 07:08:12;;;;;;;;;;;16.80;56.50;;;;;;5033554;28;19921;-68
2023/09/01 07:10:38;;;;;;;;;;;16.70;56.90;;;;;;5030277;28;19920;-68
2023/09/01 07:13:07;;;;;;;;;;;16.50;57.90;;;;;;5037985;28;19912;-68
2023/09/01 07:15:34;;;;;;;;;;;16.40;58.20;;;;;;5031606;28;19920;-67
2023/09/01 07:18:01;;;;;;;;;;;16.30;58.00;;;;;;5031883;28;20008;-68
2023/09/01 07:20:27;;;;;;;;;;;16.20;58.90;;;;;;5031676;28;19920;-69
2023/09/01 07:22:54;;;;;;;;;;;16.20;58.10;;;;;;5031620;28;19920;-69
2023/09/01 07:25:21;;;;;;;;;;;16.20;58.40;;;;;;5029191;28;19917;-70
2023/09/01 07:27:47;;;;;;;;;;;16.00;58.40;;;;;;5040989;28;19928;-70
2023/09/01 07:30:14;;;;;;;;;;;16.00;59.40;;;;;;5033883;28;20333;-68
2023/09/01 07:32:41;;;;;;;;;;;16.00;59.60;;;;;;5032547;28;19924;-70
2023/09/01 07:35:07;;;;;;;;;;;15.90;59.50;;;;;;5032008;28;19921;-70
2023/09/01 07:37:34;;;;;;;;;;;15.90;60.30;;;;;;5028231;28;20382;-70
2023/09/01 07:40:03;;;;;;;;;;;15.80;60.30;;;;;;5035276;28;20290;-70
2023/09/01 07:42:30;;;;;;;;;;;15.80;61.30;;;;;;5032876;28;19917;-70
2023/09/01 07:44:56;;;;;;;;;;;15.70;61.80;;;;;;5033352;28;20434;-70
2023/09/01 07:47:23;;;;;;;;;;;15.60;62.40;;;;;;5030727;28;19913;-70
2023/09/01 07:49:50;;;;;;;;;;;15.60;63.20;;;;;;5037910;28;19917;-71
2023/09/01 07:52:16;;;;;;;;;;;15.50;63.40;;;;;;5034497;28;19913;-71
2023/09/01 07:54:43;;;;;;;;;;;15.50;64.50;;;;;;5031567;28;20012;-71
2023/09/01 07:57:10;;;;;;;;;;;15.50;64.50;;;;;;5041183;28;20358;-70
2023/09/01 07:59:37;;;;;;;;;;;15.40;64.90;;;;;;5032216;28;19921;-71
2023/09/01 08:02:03;;;;;;;;;;;15.50;65.30;;;;;;5030060;28;19959;-70
2023/09/01 08:04:30;;;;;;;;;;;15.40;65.70;;;;;;5028156;28;19979;-71
2023/09/01 08:06:59;;;;;;;;;;;15.40;66.20;;;;;;5031325;28;19913;-72
2023/09/01 08:09:26;;;;;;;;;;;15.30;66.80;;;;;;5031687;28;20426;-71
2023/09/01 08:11:53;;;;;;;;;;;15.30;66.80;;;;;;5027638;28;19917;-69
2023/09/01 08:14:20;;;;;;;;;;;15.30;67.00;;;;;;5029314;28;19921;-71
2023/09/01 08:16:47;;;;;;;;;;;15.20;67.60;;;;;;5030890;28;19923;-69
2023/09/01 08:19:14;;;;;;;;;;;15.00;68.20;;;;;;5031746;28;19925;-70
2023/09/01 08:21:41;;;;;;;;;;;14.90;69.20;;;;;;5032712;28;19913;-70
2023/09/01 08:24:08;;;;;;;;;;;14.80;70.40;;;;;;5033688;28;19923;-71
2023/09/01 08:26:36;;;;;;;;;;;14.90;70.30;;;;;;5028183;28;19920;-71
2023/09/01 08:29:04;;;;;;;;;;;14.90;70.60;;;;;;5032013;28;19925;-70
2023/09/01 08:31:32;;;;;;;;;;;14.70;71.80;;;;;;5026651;28;19913;-69
2023/09/01 08:33:58;;;;;;;;;;;14.80;72.50;;;;;;5035195;28;19948;-70
2023/09/01 08:36:26;;;;;;;;;;;14.80;72.30;;;;;;5031612;28;19913;-69
2023/09/01 08:38:53;;;;;;;;;;;14.70;72.60;;;;;;5031221;28;19917;-71
2023/09/01 08:41:20;;;;;;;;;;;14.60;72.90;;;;;;5032147;28;19971;-71
2023/09/01 08:43:48;;;;;;;;;;;14.50;73.20;;;;;;5046709;28;19913;-71
2023/09/01 08:46:18;;;;;;;;;;;14.50;73.80;;;;;;5028983;28;19924;-72
2023/09/01 08:48:46;;;;;;;;;;;14.50;73.90;;;;;;5029645;28;20023;-71
2023/09/01 08:51:14;;;;;;;;;;;14.50;74.00;;;;;;5032370;28;19917;-71
2023/09/01 08:53:42;;;;;;;;;;;14.40;75.20;;;;;;5033205;28;19909;-71
2023/09/01 08:56:09;;;;;;;;;;;14.40;75.00;;;;;;5043092;28;20129;-71
2023/09/01 08:58:36;;;;;;;;;;;14.40;75.40;;;;;;5031762;28;19971;-72
2023/09/01 09:01:03;;;;;;;;;;;14.20;76.40;;;;;;5032244;28;20444;-69
2023/09/01 09:03:30;;;;;;;;;;;14.20;77.30;;;;;;5031489;28;20047;-70
2023/09/01 09:05:56;;;;;;;;;;;14.00;77.20;;;;;;5030032;28;20358;-71
2023/09/01 09:08:23;;;;;;;;;;;14.00;78.30;;;;;;5031500;28;19925;-73
2023/09/01 09:10:50;;;;;;;;;;;13.90;78.30;;;;;;5032473;28;19921;-71
2023/09/01 09:13:26;;;;;;;;;;;13.90;79.70;;;;;;5032379;28;20004;-71
2023/09/01 09:16:05;;;;;;;;;;;13.80;79.90;;;;;;5030980;28;19920;-71
2023/09/01 09:18:32;;;;;;;;;;;13.70;79.50;;;;;;5030802;28;19913;-71
2023/09/01 09:20:59;;;;;;;;;;;13.70;80.80;;;;;;5032017;28;20531;-71
2023/09/01 09:23:46;;;;;;;;;;;13.70;81.20;;;;;;5031254;28;19917;-71
2023/09/01 09:26:13;;;;;;;;;;;13.60;81.00;;;;;;5026259;28;20404;-70
2023/09/01 09:28:40;;;;;;;;;;;13.60;81.40;;;;;;5032538;28;19971;-71
2023/09/01 09:31:07;;;;;;;;;;;13.60;82.00;;;;;;5029228;28;19909;-70
2023/09/01 09:33:34;;;;;;;;;;;13.60;82.60;;;;;;5032369;28;19913;-71
2023/09/01 09:36:03;;;;;;;;;;;13.60;82.00;;;;;;5030114;28;19932;-70
2023/09/01 09:38:40;;;;;;;;;;;13.50;82.50;;;;;;5032013;28;19983;-71
2023/09/01 09:41:07;;;;;;;;;;;13.40;82.80;;;;;;5030228;28;19981;-71
2023/09/01 09:43:46;;;;;;;;;;;13.40;83.10;;;;;;5028949;28;19936;-70
2023/09/01 09:46:14;;;;;;;;;;;13.30;83.40;;;;;;5031872;28;19967;-73
2023/09/01 09:48:41;;;;;;;;;;;13.30;83.60;;;;;;5034775;28;19967;-71
2023/09/01 09:51:10;;;;;;;;;;;13.20;83.90;;;;;;5029633;28;19968;-71
2023/09/01 09:53:37;;;;;;;;;;;13.20;83.90;;;;;;5031893;28;19917;-69
2023/09/01 09:56:24;;;;;;;;;;;13.10;84.10;;;;;;5034726;28;19917;-71
2023/09/01 09:58:51;;;;;;;;;;;13.10;84.30;;;;;;5032860;28;19920;-71
2023/09/01 10:01:23;;;;;;;;;;;13.10;84.90;;;;;;5034258;28;19914;-72
2023/09/01 10:03:50;;;;;;;;;;;13.10;84.60;;;;;;5036497;28;19921;-71
2023/09/01 10:06:17;;;;;;;;;;;13.10;84.60;;;;;;5031630;28;19913;-71
2023/09/01 10:08:47;;;;;;;;;;;13.00;84.70;;;;;;5035300;28;19971;-71
2023/09/01 10:11:14;;;;;;;;;;;12.90;84.60;;;;;;5033621;28;19964;-70
2023/09/01 10:13:44;;;;;;;;;;;13.00;83.90;;;;;;5035044;28;20321;-70
2023/09/01 10:16:12;;;;;;;;;;;13.00;84.80;;;;;;5034237;28;19917;-71
2023/09/01 10:18:41;;;;;;;;;;;12.90;84.40;;;;;;5034023;28;20309;-70
2023/09/01 10:21:08;;;;;;;;;;;12.80;85.10;;;;;;5033311;28;20386;-70
2023/09/01 10:23:35;;;;;;;;;;;12.70;85.50;;;;;;5030842;28;19917;-70
2023/09/01 10:26:28;;;;;;;;;;;12.70;85.50;;;;;;5032674;28;19968;-69
2023/09/01 10:28:55;;;;;;;;;;;12.60;86.00;;;;;;5032660;28;19925;-72
2023/09/01 10:31:23;;;;;;;;;;;12.50;86.30;;;;;;5036105;28;19916;-71
2023/09/01 10:34:12;;;;;;;;;;;12.40;86.60;;;;;;5034709;28;19917;-70
2023/09/01 10:36:40;;;;;;;;;;;12.40;86.90;;;;;;5032054;28;19974;-71
2023/09/01 10:39:19;;;;;;;;;;;12.40;86.90;;;;;;5046789;28;20000;-71
2023/09/01 10:41:50;;;;;;;;;;;12.30;87.00;;;;;;5030535;28;19913;-70
2023/09/01 10:44:17;;;;;;;;;;;12.20;87.60;;;;;;5035462;28;20335;-70
2023/09/01 10:46:43;;;;;;;;;;;12.40;87.20;;;;;;5035124;28;20294;-72
2023/09/01 10:49:12;;;;;;;;;;;12.20;87.50;;;;;;5032325;28;20008;-71
2023/09/01 10:51:39;;;;;;;;;;;12.30;87.50;;;;;;5029573;28;19914;-70
2023/09/01 10:54:15;;;;;;;;;;;12.30;86.80;;;;;;5030606;28;20476;-71
2023/09/01 10:56:59;;;;;;;;;;;12.30;87.40;;;;;;5032691;28;19979;-72
2023/09/01 10:59:32;;;;;;;;;;;12.20;87.70;;;;;;5034464;28;20007;-71
2023/09/01 11:02:36;;;;;;;;;;;12.10;88.20;;;;;;5033896;28;19959;-72
2023/09/01 11:05:04;;;;;;;;;;;12.10;88.60;;;;;;4947631;29;19910;-70
2023/09/01 11:07:50;;;;;;;;;;;12.20;88.50;;;;;;4950778;28;19921;-71
2023/09/01 11:10:26;;;;;;;;;;;12.10;88.10;;;;;;4994488;28;20321;-71
2023/09/01 11:12:53;;;;;;;;;;;12.10;88.20;;;;;;5033544;28;19960;-71
2023/09/01 11:15:19;;;;;;;;;;;12.10;88.30;;;;;;5033571;28;19928;-70
2023/09/01 11:17:49;;;;;;;;;;;12.10;88.50;;;;;;5034268;28;19913;-71
2023/09/01 11:20:19;;;;;;;;;;;12.00;87.90;;;;;;5034876;28;19960;-71
2023/09/01 11:22:46;;;;;;;;;;;12.00;87.60;;;;;;5037304;28;19917;-71
2023/09/01 11:25:14;;;;;;;;;;;11.90;87.40;;;;;;5035853;28;19963;-70
2023/09/01 11:27:47;;;;;;;;;;;12.00;87.60;;;;;;5033760;28;20004;-70
2023/09/01 11:30:16;;;;;;;;;;;12.00;87.20;;;;;;5034590;28;20381;-70
2023/09/01 11:32:42;;;;;;;;;;;11.90;87.50;;;;;;5034336;28;19984;-71
2023/09/01 11:35:20;;;;;;;;;;;11.90;87.50;;;;;;5033693;28;19964;-71
2023/09/01 11:37:47;;;;;;;;;;;11.80;88.10;;;;;;5031257;28;19963;-70
2023/09/01 11:40:13;;;;;;;;;;;11.70;88.10;;;;;;5033853;28;19913;-70
2023/09/01 11:42:42;;;;;;;;;;;11.70;88.40;;;;;;5033875;28;19913;-70
2023/09/01 11:45:09;;;;;;;;;;;11.60;88.70;;;;;;5032375;28;19921;-70
2023/09/01 11:47:37;;;;;;;;;;;11.60;89.20;;;;;;5033260;28;19960;-70
2023/09/01 11:50:05;;;;;;;;;;;11.50;89.70;;;;;;5031287;28;19920;-71
2023/09/01 11:52:49;;;;;;;;;;;11.50;90.00;;;;;;5033928;28;19913;-71
2023/09/01 11:55:38;;;;;;;;;;;11.50;90.00;;;;;;5035045;28;19957;-71
2023/09/01 11:58:05;;;;;;;;;;;11.40;90.00;;;;;;5032240;28;20264;-72
2023/09/01 12:00:33;;;;;;;;;;;11.40;90.20;;;;;;5032150;28;19921;-72
2023/09/01 12:03:00;;;;;;;;;;;11.50;90.00;;;;;;5035588;28;19963;-72
2023/09/01 12:05:30;;;;;;;;;;;11.50;90.00;;;;;;5029873;28;20366;-71
2023/09/01 12:07:57;;;;;;;;;;;11.50;90.10;;;;;;5030768;28;20259;-71
2023/09/01 12:10:24;;;;;;;;;;;11.50;90.10;;;;;;5033409;28;19913;-71
2023/09/01 12:13:00;;;;;;;;;;;11.50;90.20;;;;;;5031381;28;19936;-70
2023/09/01 12:15:27;;;;;;;;;;;11.40;90.00;;;;;;5030025;28;19928;-71
2023/09/01 12:17:53;;;;;;;;;;;11.40;90.20;;;;;;5032327;28;19918;-72
2023/09/01 12:20:20;;;;;;;;;;;11.30;90.10;;;;;;5033956;28;19909;-71
2023/09/01 12:22:48;;;;;;;;;;;11.30;89.90;;;;;;5034852;28;19916;-71
2023/09/01 12:25:14;;;;;;;;;;;11.20;90.10;;;;;;5030982;28;19924;-71
2023/09/01 12:27:41;;;;;;;;;;;11.10;90.10;;;;;;5030833;28;19936;-71
2023/09/01 12:30:08;;;;;;;;;;;11.10;90.50;;;;;;5032748;28;19913;-71
2023/09/01 12:32:35;;;;;;;;;;;11.00;90.70;;;;;;5033005;28;19917;-72
2023/09/01 12:35:01;;;;;;;;;;;11.00;90.50;;;;;;5032347;28;20000;-71
2023/09/01 12:37:28;;;;;;;;;;;11.00;90.30;;;;;;5032980;28;19920;-72
2023/09/01 12:39:54;;;;;;;;;;;11.00;90.30;;;;;;5033418;28;19924;-72
2023/09/01 12:42:21;;;;;;;;;;;10.90;90.40;;;;;;5033250;28;20255;-71
2023/09/01 12:44:48;;;;;;;;;;;10.90;90.40;;;;;;5046974;28;20432;-70
2023/09/01 12:47:14;;;;;;;;;;;10.90;90.60;;;;;;5032105;28;19920;-71
2023/09/01 12:49:43;;;;;;;;;;;10.90;90.80;;;;;;5033544;28;19917;-71
2023/09/01 12:52:10;;;;;;;;;;;10.90;90.50;;;;;;5033267;28;19924;-71
2023/09/01 12:54:37;;;;;;;;;;;10.90;90.40;;;;;;5027123;28;19916;-71
2023/09/01 12:57:08;;;;;;;;;;;10.90;90.60;;;;;;5030972;28;20203;-70
2023/09/01 12:59:35;;;;;;;;;;;10.90;90.50;;;;;;5032768;28;20385;-72
2023/09/01 13:02:02;;;;;;;;;;;10.90;90.70;;;;;;5030885;28;19920;-72
2023/09/01 13:04:31;;;;;;;;;;;10.80;90.70;;;;;;5032245;28;19957;-72
2023/09/01 13:06:58;;;;;;;;;;;10.80;90.90;;;;;;5031678;28;19917;-71
2023/09/01 13:09:25;;;;;;;;;;;10.80;91.00;;;;;;5028067;28;19988;-71
2023/09/01 13:11:51;;;;;;;;;;;10.80;90.90;;;;;;5032246;28;20004;-71
2023/09/01 13:14:18;;;;;;;;;;;10.80;90.90;;;;;;5033086;28;20278;-70
2023/09/01 13:16:45;;;;;;;;;;;10.80;91.00;;;;;;5032105;28;19917;-71
2023/09/01 13:19:11;;;;;;;;;;;10.80;91.10;;;;;;5032310;28;20000;-72
2023/09/01 13:21:38;;;;;;;;;;;10.70;91.20;;;;;;5032176;28;19958;-71
2023/09/01 13:24:05;;;;;;;;;;;10.80;91.30;;;;;;5032600;28;19921;-72
2023/09/01 13:26:31;;;;;;;;;;;10.70;91.30;;;;;;5030778;28;20286;-71
2023/09/01 13:28:59;;;;;;;;;;;10.60;91.20;;;;;;5032196;28;19921;-71
2023/09/01 13:31:25;;;;;;;;;;;10.50;91.50;;;;;;5034914;28;20646;-71
2023/09/01 13:33:52;;;;;;;;;;;10.50;91.80;;;;;;5034833;28;19920;-71
2023/09/01 13:36:18;;;;;;;;;;;10.30;92.10;;;;;;5035514;28;19919;-71
2023/09/01 13:38:45;;;;;;;;;;;10.30;92.30;;;;;;5035182;28;19913;-71
2023/09/01 13:41:12;;;;;;;;;;;10.20;92.40;;;;;;5032945;28;19917;-71
2023/09/01 13:43:39;;;;;;;;;;;10.10;92.70;;;;;;5045948;28;20370;-71
2023/09/01 13:46:20;;;;;;;;;;;10.20;92.50;;;;;;5035615;28;20030;-71
2023/09/01 13:48:49;;;;;;;;;;;10.20;92.60;;;;;;5033110;28;19924;-71
2023/09/01 13:51:16;;;;;;;;;;;10.30;92.50;;;;;;5034528;28;19999;-71
2023/09/01 13:53:43;;;;;;;;;;;10.40;92.50;;;;;;5044729;28;20378;-71
2023/09/01 13:56:09;;;;;;;;;;;10.40;92.50;;;;;;5034318;28;19923;-71
2023/09/01 13:58:36;;;;;;;;;;;10.40;92.40;;;;;;5036932;28;19913;-71
2023/09/01 14:01:03;;;;;;;;;;;10.40;92.30;;;;;;5035381;28;20329;-71
2023/09/01 14:03:31;;;;;;;;;;;10.30;92.30;;;;;;5036410;28;19971;-71
2023/09/01 14:06:01;;;;;;;;;;;10.20;92.60;;;;;;5033982;28;19913;-71
2023/09/01 14:08:31;;;;;;;;;;;10.20;92.60;;;;;;5034841;28;19932;-71
2023/09/01 14:10:58;;;;;;;;;;;10.10;92.70;;;;;;5034215;28;20370;-70
2023/09/01 14:13:25;;;;;;;;;;;10.10;92.90;;;;;;5034598;28;20005;-71
2023/09/01 14:15:55;;;;;;;;;;;10.20;92.70;;;;;;5033253;28;20293;-71
2023/09/01 14:18:22;;;;;;;;;;;10.20;92.90;;;;;;5048113;28;20369;-69
2023/09/01 14:20:52;;;;;;;;;;;10.20;92.70;;;;;;5035391;28;19913;-71
2023/09/01 14:23:25;;;;;;;;;;;10.20;92.70;;;;;;5033878;28;19917;-71